sensor_id;sensor_type;location;lat;lon;timestamp;P1;durP1;ratioP1;P2;durP2;ratioP2
45011;SDS011;63444;48.148;11.542;2023-06-22T00:00:49;7.40;;;3.88;;
45011;SDS011;63444;48.148;11.542;2023-06-22T00:03:15;7.45;;;3.58;;
45011;SDS011;63444;48.148;11.542;2023-06-22T00:05:42;7.40;;;3.72;;
45011;SDS011;63444;48.148;11.542;2023-06-22T00:08:07;9.98;;;3.80;;
45011;SDS011;63444;48.148;11.542;2023-06-22T00:10:33;6.88;;;3.08;;
45011;SDS011;63444;48.148;11.542;2023-06-22T00:12:58;9.65;;;3.83;;
45011;SDS011;63444;48.148;11.542;2023-06-22T00:15:24;6.63;;;3.67;;
45011;SDS011;63444;48.148;11.542;2023-06-22T00:17:50;8.55;;;3.80;;
45011;SDS011;63444;48.148;11.542;2023-06-22T00:20:16;6.93;;;3.70;;
45011;SDS011;63444;48.148;11.542;2023-06-22T00:22:43;4.95;;;3.70;;
45011;SDS011;63444;48.148;11.542;2023-06-22T00:25:09;7.90;;;3.65;;
45011;SDS011;63444;48.148;11.542;2023-06-22T00:27:35;6.43;;;3.42;;
45011;SDS011;63444;48.148;11.542;2023-06-22T00:30:01;8.55;;;4.28;;
45011;SDS011;63444;48.148;11.542;2023-06-22T00:32:28;8.45;;;4.20;;
45011;SDS011;63444;48.148;11.542;2023-06-22T00:34:53;7.15;;;3.92;;
45011;SDS011;63444;48.148;11.542;2023-06-22T00:37:19;7.47;;;4.40;;
45011;SDS011;63444;48.148;11.542;2023-06-22T00:39:47;8.65;;;4.03;;
45011;SDS011;63444;48.148;11.542;2023-06-22T00:42:13;7.03;;;3.83;;
45011;SDS011;63444;48.148;11.542;2023-06-22T00:44:39;8.15;;;4.35;;
45011;SDS011;63444;48.148;11.542;2023-06-22T00:47:05;6.28;;;3.60;;
45011;SDS011;63444;48.148;11.542;2023-06-22T00:49:31;6.55;;;4.30;;
45011;SDS011;63444;48.148;11.542;2023-06-22T00:51:57;8.27;;;3.90;;
45011;SDS011;63444;48.148;11.542;2023-06-22T00:54:23;8.40;;;3.85;;
45011;SDS011;63444;48.148;11.542;2023-06-22T00:56:58;6.13;;;3.83;;
45011;SDS011;63444;48.148;11.542;2023-06-22T00:59:24;6.25;;;4.03;;
45011;SDS011;63444;48.148;11.542;2023-06-22T01:01:51;8.02;;;4.32;;
45011;SDS011;63444;48.148;11.542;2023-06-22T01:04:17;8.00;;;4.55;;
45011;SDS011;63444;48.148;11.542;2023-06-22T01:06:51;9.93;;;4.28;;
45011;SDS011;63444;48.148;11.542;2023-06-22T01:09:27;8.13;;;4.60;;
45011;SDS011;63444;48.148;11.542;2023-06-22T01:12:00;6.22;;;4.00;;
45011;SDS011;63444;48.148;11.542;2023-06-22T01:14:35;8.18;;;4.18;;
45011;SDS011;63444;48.148;11.542;2023-06-22T01:17:08;7.18;;;3.92;;
45011;SDS011;63444;48.148;11.542;2023-06-22T01:22:13;11.10;;;5.15;;
45011;SDS011;63444;48.148;11.542;2023-06-22T01:29:55;8.32;;;4.25;;
45011;SDS011;63444;48.148;11.542;2023-06-22T01:32:30;9.02;;;3.85;;
45011;SDS011;63444;48.148;11.542;2023-06-22T01:34:58;7.20;;;3.70;;
45011;SDS011;63444;48.148;11.542;2023-06-22T01:37:27;9.35;;;4.55;;
45011;SDS011;63444;48.148;11.542;2023-06-22T01:39:54;6.65;;;3.72;;
45011;SDS011;63444;48.148;11.542;2023-06-22T01:42:20;6.38;;;3.75;;
45011;SDS011;63444;48.148;11.542;2023-06-22T01:44:47;9.00;;;3.63;;
45011;SDS011;63444;48.148;11.542;2023-06-22T01:47:13;10.00;;;4.50;;
45011;SDS011;63444;48.148;11.542;2023-06-22T01:49:39;11.18;;;4.57;;
45011;SDS011;63444;48.148;11.542;2023-06-22T01:52:06;7.05;;;3.90;;
45011;SDS011;63444;48.148;11.542;2023-06-22T01:54:32;5.43;;;3.85;;
45011;SDS011;63444;48.148;11.542;2023-06-22T01:56:57;5.60;;;3.67;;
45011;SDS011;63444;48.148;11.542;2023-06-22T01:59:25;8.18;;;3.95;;
45011;SDS011;63444;48.148;11.542;2023-06-22T02:02:07;7.15;;;4.07;;
45011;SDS011;63444;48.148;11.542;2023-06-22T02:04:39;6.72;;;3.88;;
45011;SDS011;63444;48.148;11.542;2023-06-22T02:07:32;6.88;;;4.07;;
45011;SDS011;63444;48.148;11.542;2023-06-22T02:10:09;8.05;;;3.75;;
45011;SDS011;63444;48.148;11.542;2023-06-22T02:12:39;9.90;;;4.40;;
45011;SDS011;63444;48.148;11.542;2023-06-22T02:15:07;7.00;;;4.00;;
45011;SDS011;63444;48.148;11.542;2023-06-22T02:17:33;6.82;;;3.83;;
45011;SDS011;63444;48.148;11.542;2023-06-22T02:20:01;7.07;;;3.92;;
45011;SDS011;63444;48.148;11.542;2023-06-22T02:22:33;6.88;;;4.00;;
45011;SDS011;63444;48.148;11.542;2023-06-22T02:24:59;6.60;;;3.75;;
45011;SDS011;63444;48.148;11.542;2023-06-22T02:27:24;8.25;;;4.20;;
45011;SDS011;63444;48.148;11.542;2023-06-22T02:29:50;8.07;;;4.65;;
45011;SDS011;63444;48.148;11.542;2023-06-22T02:32:16;8.02;;;4.13;;
45011;SDS011;63444;48.148;11.542;2023-06-22T02:34:42;7.03;;;4.10;;
45011;SDS011;63444;48.148;11.542;2023-06-22T02:37:12;6.95;;;3.78;;
45011;SDS011;63444;48.148;11.542;2023-06-22T02:39:39;6.00;;;3.75;;
45011;SDS011;63444;48.148;11.542;2023-06-22T02:42:05;6.50;;;3.97;;
45011;SDS011;63444;48.148;11.542;2023-06-22T02:44:31;7.38;;;4.40;;
45011;SDS011;63444;48.148;11.542;2023-06-22T02:46:56;5.30;;;3.67;;
45011;SDS011;63444;48.148;11.542;2023-06-22T02:49:22;7.22;;;3.95;;
45011;SDS011;63444;48.148;11.542;2023-06-22T02:51:48;6.80;;;4.10;;
45011;SDS011;63444;48.148;11.542;2023-06-22T02:54:14;7.05;;;3.92;;
45011;SDS011;63444;48.148;11.542;2023-06-22T02:56:39;6.38;;;3.95;;
45011;SDS011;63444;48.148;11.542;2023-06-22T02:59:05;7.68;;;5.10;;
45011;SDS011;63444;48.148;11.542;2023-06-22T03:01:31;5.80;;;4.50;;
45011;SDS011;63444;48.148;11.542;2023-06-22T03:04:04;6.10;;;4.43;;
45011;SDS011;63444;48.148;11.542;2023-06-22T03:06:33;8.38;;;4.60;;
45011;SDS011;63444;48.148;11.542;2023-06-22T03:09:00;5.97;;;4.40;;
45011;SDS011;63444;48.148;11.542;2023-06-22T03:11:28;8.70;;;4.93;;
45011;SDS011;63444;48.148;11.542;2023-06-22T03:13:54;7.20;;;4.20;;
45011;SDS011;63444;48.148;11.542;2023-06-22T03:16:19;7.65;;;4.50;;
45011;SDS011;63444;48.148;11.542;2023-06-22T03:18:45;7.53;;;4.75;;
45011;SDS011;63444;48.148;11.542;2023-06-22T03:21:10;8.13;;;4.30;;
45011;SDS011;63444;48.148;11.542;2023-06-22T03:23:36;8.43;;;4.90;;
45011;SDS011;63444;48.148;11.542;2023-06-22T03:26:02;7.85;;;4.40;;
45011;SDS011;63444;48.148;11.542;2023-06-22T03:28:29;7.75;;;4.13;;
45011;SDS011;63444;48.148;11.542;2023-06-22T03:30:57;7.43;;;4.72;;
45011;SDS011;63444;48.148;11.542;2023-06-22T03:33:23;6.80;;;4.63;;
45011;SDS011;63444;48.148;11.542;2023-06-22T03:35:48;10.48;;;4.75;;
45011;SDS011;63444;48.148;11.542;2023-06-22T03:38:15;7.20;;;4.28;;
45011;SDS011;63444;48.148;11.542;2023-06-22T03:40:42;9.02;;;4.75;;
45011;SDS011;63444;48.148;11.542;2023-06-22T03:43:07;9.13;;;4.78;;
45011;SDS011;63444;48.148;11.542;2023-06-22T03:45:33;6.70;;;4.40;;
45011;SDS011;63444;48.148;11.542;2023-06-22T03:47:59;9.00;;;5.10;;
45011;SDS011;63444;48.148;11.542;2023-06-22T03:50:25;7.97;;;5.03;;
45011;SDS011;63444;48.148;11.542;2023-06-22T03:52:51;9.32;;;5.00;;
45011;SDS011;63444;48.148;11.542;2023-06-22T03:55:17;6.57;;;4.50;;
45011;SDS011;63444;48.148;11.542;2023-06-22T03:57:44;8.02;;;4.60;;
45011;SDS011;63444;48.148;11.542;2023-06-22T04:00:10;7.13;;;4.40;;
45011;SDS011;63444;48.148;11.542;2023-06-22T04:02:36;6.15;;;4.25;;
45011;SDS011;63444;48.148;11.542;2023-06-22T04:05:01;8.60;;;4.80;;
45011;SDS011;63444;48.148;11.542;2023-06-22T04:07:27;6.65;;;4.78;;
45011;SDS011;63444;48.148;11.542;2023-06-22T04:09:52;8.05;;;5.28;;
45011;SDS011;63444;48.148;11.542;2023-06-22T04:12:18;8.25;;;4.30;;
45011;SDS011;63444;48.148;11.542;2023-06-22T04:14:43;6.15;;;4.72;;
45011;SDS011;63444;48.148;11.542;2023-06-22T04:17:09;7.72;;;4.70;;
45011;SDS011;63444;48.148;11.542;2023-06-22T04:19:35;8.68;;;4.97;;
45011;SDS011;63444;48.148;11.542;2023-06-22T04:22:00;11.82;;;5.68;;
45011;SDS011;63444;48.148;11.542;2023-06-22T04:24:26;10.65;;;5.20;;
45011;SDS011;63444;48.148;11.542;2023-06-22T04:26:51;6.80;;;4.60;;
45011;SDS011;63444;48.148;11.542;2023-06-22T04:29:19;9.13;;;5.55;;
45011;SDS011;63444;48.148;11.542;2023-06-22T04:31:45;10.82;;;5.15;;
45011;SDS011;63444;48.148;11.542;2023-06-22T04:34:13;8.77;;;5.32;;
45011;SDS011;63444;48.148;11.542;2023-06-22T04:36:41;8.68;;;4.93;;
45011;SDS011;63444;48.148;11.542;2023-06-22T04:39:07;8.18;;;5.15;;
45011;SDS011;63444;48.148;11.542;2023-06-22T04:41:38;7.45;;;5.07;;
45011;SDS011;63444;48.148;11.542;2023-06-22T04:44:13;8.77;;;5.30;;
45011;SDS011;63444;48.148;11.542;2023-06-22T04:46:50;9.65;;;5.78;;
45011;SDS011;63444;48.148;11.542;2023-06-22T04:49:25;8.43;;;5.63;;
45011;SDS011;63444;48.148;11.542;2023-06-22T04:51:58;9.38;;;5.55;;
45011;SDS011;63444;48.148;11.542;2023-06-22T04:54:27;10.38;;;5.72;;
45011;SDS011;63444;48.148;11.542;2023-06-22T04:56:53;9.35;;;5.68;;
45011;SDS011;63444;48.148;11.542;2023-06-22T04:59:25;11.05;;;5.22;;
45011;SDS011;63444;48.148;11.542;2023-06-22T05:01:54;8.80;;;5.60;;
45011;SDS011;63444;48.148;11.542;2023-06-22T05:04:25;6.85;;;4.90;;
45011;SDS011;63444;48.148;11.542;2023-06-22T05:06:53;7.32;;;5.30;;
45011;SDS011;63444;48.148;11.542;2023-06-22T05:09:19;11.05;;;5.30;;
45011;SDS011;63444;48.148;11.542;2023-06-22T05:11:45;10.77;;;5.93;;
45011;SDS011;63444;48.148;11.542;2023-06-22T05:14:11;11.88;;;6.05;;
45011;SDS011;63444;48.148;11.542;2023-06-22T05:16:37;10.07;;;5.35;;
45011;SDS011;63444;48.148;11.542;2023-06-22T05:19:03;9.60;;;5.40;;
45011;SDS011;63444;48.148;11.542;2023-06-22T05:21:30;11.43;;;5.97;;
45011;SDS011;63444;48.148;11.542;2023-06-22T05:23:56;9.85;;;6.05;;
45011;SDS011;63444;48.148;11.542;2023-06-22T05:26:27;11.30;;;5.70;;
45011;SDS011;63444;48.148;11.542;2023-06-22T05:28:53;8.48;;;5.65;;
45011;SDS011;63444;48.148;11.542;2023-06-22T05:31:19;10.00;;;6.13;;
45011;SDS011;63444;48.148;11.542;2023-06-22T05:33:45;17.40;;;6.25;;
45011;SDS011;63444;48.148;11.542;2023-06-22T05:36:12;9.65;;;6.13;;
45011;SDS011;63444;48.148;11.542;2023-06-22T05:38:37;12.13;;;5.72;;
45011;SDS011;63444;48.148;11.542;2023-06-22T05:41:04;13.48;;;6.03;;
45011;SDS011;63444;48.148;11.542;2023-06-22T05:43:30;9.82;;;5.85;;
45011;SDS011;63444;48.148;11.542;2023-06-22T05:45:56;9.85;;;5.57;;
45011;SDS011;63444;48.148;11.542;2023-06-22T05:48:22;10.60;;;6.43;;
45011;SDS011;63444;48.148;11.542;2023-06-22T05:50:48;12.43;;;5.90;;
45011;SDS011;63444;48.148;11.542;2023-06-22T05:53:13;12.65;;;6.30;;
45011;SDS011;63444;48.148;11.542;2023-06-22T05:55:39;8.10;;;5.90;;
45011;SDS011;63444;48.148;11.542;2023-06-22T05:58:05;13.27;;;5.50;;
45011;SDS011;63444;48.148;11.542;2023-06-22T06:00:31;11.70;;;6.00;;
45011;SDS011;63444;48.148;11.542;2023-06-22T06:02:57;12.95;;;5.78;;
45011;SDS011;63444;48.148;11.542;2023-06-22T06:05:28;8.55;;;5.28;;
45011;SDS011;63444;48.148;11.542;2023-06-22T06:07:55;10.55;;;5.72;;
45011;SDS011;63444;48.148;11.542;2023-06-22T06:10:20;8.73;;;5.65;;
45011;SDS011;63444;48.148;11.542;2023-06-22T06:12:46;10.93;;;6.03;;
45011;SDS011;63444;48.148;11.542;2023-06-22T06:15:11;9.52;;;5.18;;
45011;SDS011;63444;48.148;11.542;2023-06-22T06:17:44;9.93;;;5.10;;
45011;SDS011;63444;48.148;11.542;2023-06-22T06:20:11;9.40;;;5.32;;
45011;SDS011;63444;48.148;11.542;2023-06-22T06:22:37;14.10;;;5.53;;
45011;SDS011;63444;48.148;11.542;2023-06-22T06:25:02;7.95;;;5.20;;
45011;SDS011;63444;48.148;11.542;2023-06-22T06:27:29;10.05;;;5.50;;
45011;SDS011;63444;48.148;11.542;2023-06-22T06:29:55;10.57;;;5.28;;
45011;SDS011;63444;48.148;11.542;2023-06-22T06:32:20;10.63;;;5.35;;
45011;SDS011;63444;48.148;11.542;2023-06-22T06:34:46;12.20;;;5.70;;
45011;SDS011;63444;48.148;11.542;2023-06-22T06:37:11;11.00;;;4.95;;
45011;SDS011;63444;48.148;11.542;2023-06-22T06:39:37;12.15;;;5.20;;
45011;SDS011;63444;48.148;11.542;2023-06-22T06:42:03;10.18;;;5.18;;
45011;SDS011;63444;48.148;11.542;2023-06-22T06:44:29;9.93;;;5.15;;
45011;SDS011;63444;48.148;11.542;2023-06-22T06:46:55;10.35;;;5.25;;
45011;SDS011;63444;48.148;11.542;2023-06-22T06:49:20;8.00;;;4.75;;
45011;SDS011;63444;48.148;11.542;2023-06-22T06:51:46;10.52;;;4.65;;
45011;SDS011;63444;48.148;11.542;2023-06-22T06:54:12;10.25;;;4.78;;
45011;SDS011;63444;48.148;11.542;2023-06-22T06:56:37;14.40;;;5.68;;
45011;SDS011;63444;48.148;11.542;2023-06-22T06:59:03;10.93;;;5.40;;
45011;SDS011;63444;48.148;11.542;2023-06-22T07:01:28;14.07;;;5.63;;
45011;SDS011;63444;48.148;11.542;2023-06-22T07:03:58;11.30;;;5.85;;
45011;SDS011;63444;48.148;11.542;2023-06-22T07:06:24;9.27;;;5.10;;
45011;SDS011;63444;48.148;11.542;2023-06-22T07:08:54;11.82;;;5.47;;
45011;SDS011;63444;48.148;11.542;2023-06-22T07:11:20;14.98;;;5.80;;
45011;SDS011;63444;48.148;11.542;2023-06-22T07:13:46;9.60;;;5.20;;
45011;SDS011;63444;48.148;11.542;2023-06-22T07:16:11;8.80;;;4.80;;
45011;SDS011;63444;48.148;11.542;2023-06-22T07:18:39;13.73;;;5.80;;
45011;SDS011;63444;48.148;11.542;2023-06-22T07:21:05;6.60;;;4.00;;
45011;SDS011;63444;48.148;11.542;2023-06-22T07:23:32;13.73;;;6.07;;
45011;SDS011;63444;48.148;11.542;2023-06-22T07:25:57;11.23;;;5.18;;
45011;SDS011;63444;48.148;11.542;2023-06-22T07:28:27;14.18;;;5.75;;
45011;SDS011;63444;48.148;11.542;2023-06-22T07:30:53;11.57;;;5.40;;
45011;SDS011;63444;48.148;11.542;2023-06-22T07:33:19;8.27;;;4.47;;
45011;SDS011;63444;48.148;11.542;2023-06-22T07:35:45;10.18;;;5.20;;
45011;SDS011;63444;48.148;11.542;2023-06-22T07:38:12;9.45;;;5.30;;
45011;SDS011;63444;48.148;11.542;2023-06-22T07:40:39;10.07;;;5.53;;
45011;SDS011;63444;48.148;11.542;2023-06-22T07:43:06;13.90;;;5.85;;
45011;SDS011;63444;48.148;11.542;2023-06-22T07:45:32;12.63;;;5.35;;
45011;SDS011;63444;48.148;11.542;2023-06-22T07:47:59;11.98;;;5.05;;
45011;SDS011;63444;48.148;11.542;2023-06-22T07:50:25;10.60;;;5.15;;
45011;SDS011;63444;48.148;11.542;2023-06-22T07:52:51;11.38;;;5.68;;
45011;SDS011;63444;48.148;11.542;2023-06-22T07:55:17;10.27;;;5.38;;
45011;SDS011;63444;48.148;11.542;2023-06-22T07:57:43;10.15;;;5.03;;
45011;SDS011;63444;48.148;11.542;2023-06-22T08:00:09;13.50;;;5.30;;
45011;SDS011;63444;48.148;11.542;2023-06-22T08:02:40;11.27;;;5.60;;
45011;SDS011;63444;48.148;11.542;2023-06-22T08:05:07;14.35;;;5.50;;
45011;SDS011;63444;48.148;11.542;2023-06-22T08:07:34;12.07;;;5.50;;
45011;SDS011;63444;48.148;11.542;2023-06-22T08:10:06;12.82;;;5.13;;
45011;SDS011;63444;48.148;11.542;2023-06-22T08:12:35;8.75;;;4.72;;
45011;SDS011;63444;48.148;11.542;2023-06-22T08:15:00;18.35;;;5.97;;
45011;SDS011;63444;48.148;11.542;2023-06-22T08:17:26;14.80;;;6.43;;
45011;SDS011;63444;48.148;11.542;2023-06-22T08:19:51;8.98;;;4.72;;
45011;SDS011;63444;48.148;11.542;2023-06-22T08:22:17;11.70;;;5.35;;
45011;SDS011;63444;48.148;11.542;2023-06-22T08:24:43;11.65;;;4.85;;
45011;SDS011;63444;48.148;11.542;2023-06-22T08:27:09;11.88;;;5.38;;
45011;SDS011;63444;48.148;11.542;2023-06-22T08:29:39;12.68;;;5.20;;
45011;SDS011;63444;48.148;11.542;2023-06-22T08:32:07;11.35;;;5.13;;
45011;SDS011;63444;48.148;11.542;2023-06-22T08:34:34;10.95;;;5.20;;
45011;SDS011;63444;48.148;11.542;2023-06-22T08:36:59;10.13;;;5.72;;
45011;SDS011;63444;48.148;11.542;2023-06-22T08:39:26;13.30;;;5.18;;
45011;SDS011;63444;48.148;11.542;2023-06-22T08:41:52;12.50;;;5.70;;
45011;SDS011;63444;48.148;11.542;2023-06-22T08:44:18;10.93;;;5.22;;
45011;SDS011;63444;48.148;11.542;2023-06-22T08:46:44;10.23;;;4.95;;
45011;SDS011;63444;48.148;11.542;2023-06-22T08:49:10;10.10;;;5.07;;
45011;SDS011;63444;48.148;11.542;2023-06-22T08:51:35;13.57;;;5.82;;
45011;SDS011;63444;48.148;11.542;2023-06-22T08:54:04;14.30;;;5.78;;
45011;SDS011;63444;48.148;11.542;2023-06-22T08:56:30;10.90;;;4.93;;
45011;SDS011;63444;48.148;11.542;2023-06-22T08:58:55;10.77;;;5.70;;
45011;SDS011;63444;48.148;11.542;2023-06-22T09:01:21;15.02;;;5.68;;
45011;SDS011;63444;48.148;11.542;2023-06-22T09:03:46;11.52;;;5.63;;
45011;SDS011;63444;48.148;11.542;2023-06-22T09:06:20;15.00;;;5.53;;
45011;SDS011;63444;48.148;11.542;2023-06-22T09:08:46;13.60;;;5.03;;
45011;SDS011;63444;48.148;11.542;2023-06-22T09:11:12;15.38;;;5.38;;
45011;SDS011;63444;48.148;11.542;2023-06-22T09:13:38;13.23;;;5.20;;
45011;SDS011;63444;48.148;11.542;2023-06-22T09:16:04;11.32;;;5.15;;
45011;SDS011;63444;48.148;11.542;2023-06-22T09:18:30;12.13;;;5.15;;
45011;SDS011;63444;48.148;11.542;2023-06-22T09:20:56;13.32;;;4.88;;
45011;SDS011;63444;48.148;11.542;2023-06-22T09:23:21;14.40;;;5.80;;
45011;SDS011;63444;48.148;11.542;2023-06-22T09:25:47;10.60;;;5.15;;
45011;SDS011;63444;48.148;11.542;2023-06-22T09:28:13;11.82;;;5.05;;
45011;SDS011;63444;48.148;11.542;2023-06-22T09:30:39;11.10;;;5.07;;
45011;SDS011;63444;48.148;11.542;2023-06-22T09:33:05;13.60;;;5.88;;
45011;SDS011;63444;48.148;11.542;2023-06-22T09:35:30;10.45;;;5.25;;
45011;SDS011;63444;48.148;11.542;2023-06-22T09:37:56;10.80;;;5.13;;
45011;SDS011;63444;48.148;11.542;2023-06-22T09:40:21;17.50;;;5.38;;
45011;SDS011;63444;48.148;11.542;2023-06-22T09:42:47;10.25;;;4.88;;
45011;SDS011;63444;48.148;11.542;2023-06-22T09:45:12;13.50;;;5.97;;
45011;SDS011;63444;48.148;11.542;2023-06-22T09:47:38;11.30;;;5.60;;
45011;SDS011;63444;48.148;11.542;2023-06-22T09:50:04;10.48;;;5.13;;
45011;SDS011;63444;48.148;11.542;2023-06-22T09:52:31;10.43;;;5.00;;
45011;SDS011;63444;48.148;11.542;2023-06-22T09:54:56;9.65;;;4.70;;
45011;SDS011;63444;48.148;11.542;2023-06-22T09:57:22;12.80;;;5.53;;
45011;SDS011;63444;48.148;11.542;2023-06-22T09:59:47;16.02;;;5.40;;
45011;SDS011;63444;48.148;11.542;2023-06-22T10:02:13;12.98;;;4.85;;
45011;SDS011;63444;48.148;11.542;2023-06-22T10:04:38;11.38;;;5.43;;
45011;SDS011;63444;48.148;11.542;2023-06-22T10:07:05;12.63;;;4.95;;
45011;SDS011;63444;48.148;11.542;2023-06-22T10:09:31;10.57;;;5.20;;
45011;SDS011;63444;48.148;11.542;2023-06-22T10:11:56;13.55;;;5.45;;
45011;SDS011;63444;48.148;11.542;2023-06-22T10:14:22;18.20;;;6.35;;
45011;SDS011;63444;48.148;11.542;2023-06-22T10:16:49;12.13;;;5.45;;
45011;SDS011;63444;48.148;11.542;2023-06-22T10:19:14;13.15;;;5.63;;
45011;SDS011;63444;48.148;11.542;2023-06-22T10:21:40;12.85;;;5.13;;
45011;SDS011;63444;48.148;11.542;2023-06-22T10:24:06;17.60;;;6.03;;
45011;SDS011;63444;48.148;11.542;2023-06-22T10:26:32;14.30;;;5.03;;
45011;SDS011;63444;48.148;11.542;2023-06-22T10:28:58;15.73;;;6.20;;
45011;SDS011;63444;48.148;11.542;2023-06-22T10:31:24;11.27;;;5.75;;
45011;SDS011;63444;48.148;11.542;2023-06-22T10:33:50;14.02;;;5.85;;
45011;SDS011;63444;48.148;11.542;2023-06-22T10:36:15;19.00;;;6.07;;
45011;SDS011;63444;48.148;11.542;2023-06-22T10:38:41;12.65;;;5.28;;
45011;SDS011;63444;48.148;11.542;2023-06-22T10:41:06;9.20;;;5.18;;
45011;SDS011;63444;48.148;11.542;2023-06-22T10:43:32;12.75;;;5.60;;
45011;SDS011;63444;48.148;11.542;2023-06-22T10:45:57;12.00;;;5.30;;
45011;SDS011;63444;48.148;11.542;2023-06-22T10:48:23;13.55;;;5.30;;
45011;SDS011;63444;48.148;11.542;2023-06-22T10:50:48;11.70;;;5.80;;
45011;SDS011;63444;48.148;11.542;2023-06-22T10:53:14;12.07;;;5.28;;
45011;SDS011;63444;48.148;11.542;2023-06-22T10:55:40;14.77;;;6.38;;
45011;SDS011;63444;48.148;11.542;2023-06-22T10:58:05;10.10;;;5.45;;
45011;SDS011;63444;48.148;11.542;2023-06-22T11:00:31;15.15;;;5.18;;
45011;SDS011;63444;48.148;11.542;2023-06-22T11:02:56;12.52;;;5.50;;
45011;SDS011;63444;48.148;11.542;2023-06-22T11:05:23;11.68;;;5.30;;
45011;SDS011;63444;48.148;11.542;2023-06-22T11:07:48;9.95;;;4.90;;
45011;SDS011;63444;48.148;11.542;2023-06-22T11:10:14;15.07;;;5.60;;
45011;SDS011;63444;48.148;11.542;2023-06-22T11:12:40;12.23;;;5.35;;
45011;SDS011;63444;48.148;11.542;2023-06-22T11:15:07;15.60;;;5.40;;
45011;SDS011;63444;48.148;11.542;2023-06-22T11:17:33;12.98;;;5.00;;
45011;SDS011;63444;48.148;11.542;2023-06-22T11:19:59;17.98;;;6.22;;
45011;SDS011;63444;48.148;11.542;2023-06-22T11:22:25;14.23;;;5.60;;
45011;SDS011;63444;48.148;11.542;2023-06-22T11:24:51;15.20;;;5.70;;
45011;SDS011;63444;48.148;11.542;2023-06-22T11:27:16;14.10;;;5.30;;
45011;SDS011;63444;48.148;11.542;2023-06-22T11:29:42;12.90;;;5.78;;
45011;SDS011;63444;48.148;11.542;2023-06-22T11:32:07;11.65;;;5.45;;
45011;SDS011;63444;48.148;11.542;2023-06-22T11:34:33;12.32;;;5.00;;
45011;SDS011;63444;48.148;11.542;2023-06-22T11:36:59;14.90;;;5.68;;
45011;SDS011;63444;48.148;11.542;2023-06-22T11:39:24;12.20;;;5.20;;
45011;SDS011;63444;48.148;11.542;2023-06-22T11:41:50;12.63;;;5.05;;
45011;SDS011;63444;48.148;11.542;2023-06-22T11:44:15;11.38;;;5.03;;
45011;SDS011;63444;48.148;11.542;2023-06-22T11:46:41;13.75;;;5.07;;
45011;SDS011;63444;48.148;11.542;2023-06-22T11:49:06;18.58;;;6.13;;
45011;SDS011;63444;48.148;11.542;2023-06-22T11:51:32;14.70;;;6.10;;
45011;SDS011;63444;48.148;11.542;2023-06-22T11:53:58;14.77;;;5.85;;
45011;SDS011;63444;48.148;11.542;2023-06-22T11:56:24;11.98;;;5.75;;
45011;SDS011;63444;48.148;11.542;2023-06-22T11:58:49;16.30;;;5.93;;
45011;SDS011;63444;48.148;11.542;2023-06-22T12:01:15;19.05;;;5.55;;
45011;SDS011;63444;48.148;11.542;2023-06-22T12:03:41;12.95;;;5.80;;
45011;SDS011;63444;48.148;11.542;2023-06-22T12:06:08;16.63;;;5.63;;
45011;SDS011;63444;48.148;11.542;2023-06-22T12:08:34;15.70;;;6.00;;
45011;SDS011;63444;48.148;11.542;2023-06-22T12:10:59;13.57;;;5.03;;
45011;SDS011;63444;48.148;11.542;2023-06-22T12:13:25;10.55;;;5.05;;
45011;SDS011;63444;48.148;11.542;2023-06-22T12:15:50;12.57;;;5.38;;
45011;SDS011;63444;48.148;11.542;2023-06-22T12:18:17;11.85;;;5.60;;
45011;SDS011;63444;48.148;11.542;2023-06-22T12:20:45;17.48;;;5.65;;
45011;SDS011;63444;48.148;11.542;2023-06-22T12:23:11;12.00;;;5.28;;
45011;SDS011;63444;48.148;11.542;2023-06-22T12:25:37;12.45;;;5.63;;
45011;SDS011;63444;48.148;11.542;2023-06-22T12:28:02;12.10;;;5.15;;
45011;SDS011;63444;48.148;11.542;2023-06-22T12:30:29;14.60;;;5.22;;
45011;SDS011;63444;48.148;11.542;2023-06-22T12:32:55;12.75;;;5.28;;
45011;SDS011;63444;48.148;11.542;2023-06-22T12:35:20;14.30;;;5.68;;
45011;SDS011;63444;48.148;11.542;2023-06-22T12:37:46;10.50;;;5.32;;
45011;SDS011;63444;48.148;11.542;2023-06-22T12:40:12;10.60;;;5.03;;
45011;SDS011;63444;48.148;11.542;2023-06-22T12:42:37;20.27;;;6.30;;
45011;SDS011;63444;48.148;11.542;2023-06-22T12:45:03;12.88;;;5.55;;
45011;SDS011;63444;48.148;11.542;2023-06-22T12:47:29;34.30;;;6.55;;
45011;SDS011;63444;48.148;11.542;2023-06-22T12:49:55;13.98;;;5.30;;
45011;SDS011;63444;48.148;11.542;2023-06-22T12:52:21;13.65;;;5.30;;
45011;SDS011;63444;48.148;11.542;2023-06-22T12:54:46;13.50;;;4.90;;
45011;SDS011;63444;48.148;11.542;2023-06-22T12:57:13;11.50;;;5.45;;
45011;SDS011;63444;48.148;11.542;2023-06-22T12:59:38;15.38;;;5.93;;
45011;SDS011;63444;48.148;11.542;2023-06-22T13:02:04;14.07;;;5.15;;
45011;SDS011;63444;48.148;11.542;2023-06-22T13:04:30;13.27;;;5.18;;
45011;SDS011;63444;48.148;11.542;2023-06-22T13:06:56;12.32;;;5.38;;
45011;SDS011;63444;48.148;11.542;2023-06-22T13:09:21;12.30;;;5.32;;
45011;SDS011;63444;48.148;11.542;2023-06-22T13:11:47;15.15;;;5.20;;
45011;SDS011;63444;48.148;11.542;2023-06-22T13:14:12;11.07;;;5.13;;
45011;SDS011;63444;48.148;11.542;2023-06-22T13:16:38;11.13;;;5.00;;
45011;SDS011;63444;48.148;11.542;2023-06-22T13:19:03;19.85;;;5.28;;
45011;SDS011;63444;48.148;11.542;2023-06-22T13:21:30;14.00;;;5.32;;
45011;SDS011;63444;48.148;11.542;2023-06-22T13:23:56;11.13;;;5.15;;
45011;SDS011;63444;48.148;11.542;2023-06-22T13:26:21;15.23;;;5.68;;
45011;SDS011;63444;48.148;11.542;2023-06-22T13:28:47;13.88;;;5.00;;
45011;SDS011;63444;48.148;11.542;2023-06-22T13:31:13;15.63;;;5.22;;
45011;SDS011;63444;48.148;11.542;2023-06-22T13:33:39;11.10;;;5.05;;
45011;SDS011;63444;48.148;11.542;2023-06-22T13:36:05;14.00;;;4.85;;
45011;SDS011;63444;48.148;11.542;2023-06-22T13:38:32;14.68;;;5.60;;
45011;SDS011;63444;48.148;11.542;2023-06-22T13:40:59;13.20;;;5.40;;
45011;SDS011;63444;48.148;11.542;2023-06-22T13:43:26;10.52;;;4.72;;
45011;SDS011;63444;48.148;11.542;2023-06-22T13:45:52;9.38;;;4.90;;
45011;SDS011;63444;48.148;11.542;2023-06-22T13:48:18;14.98;;;4.80;;
45011;SDS011;63444;48.148;11.542;2023-06-22T13:50:44;14.07;;;5.40;;
45011;SDS011;63444;48.148;11.542;2023-06-22T13:53:09;11.27;;;5.13;;
45011;SDS011;63444;48.148;11.542;2023-06-22T13:55:35;12.32;;;4.82;;
45011;SDS011;63444;48.148;11.542;2023-06-22T13:58:00;14.32;;;4.72;;
45011;SDS011;63444;48.148;11.542;2023-06-22T14:00:26;10.77;;;5.35;;
45011;SDS011;63444;48.148;11.542;2023-06-22T14:02:53;12.13;;;5.10;;
45011;SDS011;63444;48.148;11.542;2023-06-22T14:05:18;12.57;;;5.00;;
45011;SDS011;63444;48.148;11.542;2023-06-22T14:07:45;13.93;;;4.70;;
45011;SDS011;63444;48.148;11.542;2023-06-22T14:10:10;11.18;;;5.22;;
45011;SDS011;63444;48.148;11.542;2023-06-22T14:12:36;15.82;;;5.28;;
45011;SDS011;63444;48.148;11.542;2023-06-22T14:15:02;10.13;;;4.75;;
45011;SDS011;63444;48.148;11.542;2023-06-22T14:17:27;16.08;;;5.75;;
45011;SDS011;63444;48.148;11.542;2023-06-22T14:19:53;12.68;;;5.15;;
45011;SDS011;63444;48.148;11.542;2023-06-22T14:22:19;10.13;;;4.50;;
45011;SDS011;63444;48.148;11.542;2023-06-22T14:24:45;12.27;;;4.82;;
45011;SDS011;63444;48.148;11.542;2023-06-22T14:27:12;8.80;;;4.78;;
45011;SDS011;63444;48.148;11.542;2023-06-22T14:29:37;14.27;;;5.15;;